createdAt,value
2023-05-25T00:00:13.358Z,88.12
2023-05-25T00:02:40.460Z,87.78
2023-05-25T00:05:09.011Z,87.91
2023-05-25T00:07:36.032Z,88.10
2023-05-25T00:10:03.224Z,89.09
2023-05-25T00:12:29.990Z,88.93
2023-05-25T00:14:56.786Z,90.34
2023-05-25T00:17:24.385Z,90.34
2023-05-25T00:19:51.434Z,90.63
2023-05-25T00:22:18.291Z,90.61
2023-05-25T00:24:45.066Z,92.31
2023-05-25T00:27:11.880Z,92.35
2023-05-25T00:29:38.684Z,93.14
2023-05-25T00:32:05.896Z,94.00
2023-05-25T00:34:32.756Z,94.32
2023-05-25T00:36:59.503Z,94.87
2023-05-25T00:39:26.232Z,95.26
2023-05-25T00:41:53.020Z,95.08
2023-05-25T00:44:22.164Z,95.51
2023-05-25T00:46:50.703Z,95.71
2023-05-25T00:49:18.608Z,94.85
2023-05-25T00:51:48.619Z,95.11
2023-05-25T00:54:19.636Z,94.51
2023-05-25T00:56:56.797Z,95.32
2023-05-25T00:59:37.120Z,95.19
2023-05-25T01:02:08.399Z,95.32
2023-05-25T01:04:59.863Z,95.88
2023-05-25T01:07:27.087Z,96.92
2023-05-25T01:10:06.812Z,97.07
2023-05-25T01:12:37.189Z,97.82
2023-05-25T01:15:04.816Z,97.53
2023-05-25T01:17:32.323Z,98.19
2023-05-25T01:20:09.656Z,99.54
2023-05-25T01:22:48.723Z,97.81
2023-05-25T01:25:22.043Z,98.99
2023-05-25T01:28:07.809Z,99.64
2023-05-25T01:30:34.592Z,99.21
2023-05-25T01:33:01.707Z,99.16
2023-05-25T01:35:28.599Z,100.00
2023-05-25T01:37:55.595Z,100.00
2023-05-25T01:40:22.362Z,100.00
2023-05-25T01:42:49.117Z,100.00
2023-05-25T01:45:15.925Z,100.00
2023-05-25T01:47:46.930Z,100.00
2023-05-25T01:50:28.978Z,100.00
2023-05-25T01:53:00.805Z,100.00
2023-05-25T01:55:27.768Z,100.00
2023-05-25T01:57:58.018Z,100.00
2023-05-25T02:00:26.533Z,100.00
2023-05-25T02:02:53.450Z,100.00
2023-05-25T02:05:20.711Z,100.00
2023-05-25T02:07:47.619Z,100.00
2023-05-25T02:10:14.455Z,100.00
2023-05-25T02:12:41.189Z,100.00
2023-05-25T02:15:08.576Z,100.00
2023-05-25T02:17:37.365Z,100.00
2023-05-25T02:20:08.417Z,100.00
2023-05-25T02:22:35.375Z,100.00
2023-05-25T02:25:02.169Z,100.00
2023-05-25T02:27:28.963Z,100.00
2023-05-25T02:29:55.776Z,100.00
2023-05-25T02:32:22.574Z,100.00
2023-05-25T02:34:49.531Z,100.00
2023-05-25T02:37:16.332Z,100.00
2023-05-25T02:39:43.134Z,100.00
2023-05-25T02:42:09.887Z,100.00
2023-05-25T02:44:36.732Z,100.00
2023-05-25T02:47:03.628Z,100.00
2023-05-25T02:49:30.534Z,100.00
2023-05-25T02:51:57.316Z,100.00
2023-05-25T02:54:24.042Z,100.00
2023-05-25T02:56:50.958Z,100.00
2023-05-25T02:59:17.924Z,100.00
2023-05-25T03:01:46.369Z,100.00
2023-05-25T03:04:13.133Z,100.00
2023-05-25T03:06:39.963Z,100.00
2023-05-25T03:09:07.354Z,100.00
2023-05-25T03:11:34.133Z,100.00
2023-05-25T03:14:01.173Z,100.00
2023-05-25T03:16:28.021Z,100.00
2023-05-25T03:18:54.979Z,100.00
2023-05-25T03:21:24.729Z,100.00
2023-05-25T03:23:51.906Z,100.00
2023-05-25T03:26:18.870Z,100.00
2023-05-25T03:28:45.810Z,100.00
2023-05-25T03:31:12.790Z,100.00
2023-05-25T03:33:39.785Z,100.00
2023-05-25T03:36:08.972Z,100.00
2023-05-25T03:38:37.172Z,100.00
2023-05-25T03:41:04.065Z,100.00
2023-05-25T03:43:31.476Z,99.07
2023-05-25T03:45:58.288Z,96.83
2023-05-25T03:48:25.078Z,94.93
2023-05-25T03:50:51.922Z,92.59
2023-05-25T03:53:18.714Z,90.63
2023-05-25T03:55:45.684Z,87.92
2023-05-25T03:58:13.252Z,85.95
2023-05-25T04:00:40.074Z,84.80
2023-05-25T04:03:07.133Z,83.89
2023-05-25T04:05:33.992Z,82.02
2023-05-25T04:08:00.820Z,81.97
2023-05-25T04:10:27.628Z,79.61
2023-05-25T04:12:56.758Z,78.48
2023-05-25T04:15:23.638Z,77.03
2023-05-25T04:17:50.569Z,76.22
2023-05-25T04:20:17.399Z,74.89
2023-05-25T04:22:45.163Z,73.61
2023-05-25T04:25:12.066Z,72.17
2023-05-25T04:27:38.900Z,71.42
2023-05-25T04:30:06.538Z,70.07
2023-05-25T04:32:37.481Z,70.31
2023-05-25T04:35:05.588Z,70.34
2023-05-25T04:37:33.398Z,68.37
2023-05-25T04:40:00.319Z,68.17
2023-05-25T04:42:28.947Z,66.60
2023-05-25T04:44:55.948Z,65.64
2023-05-25T04:47:25.194Z,65.41
2023-05-25T04:49:53.020Z,64.75
2023-05-25T04:52:19.769Z,63.72
2023-05-25T04:54:46.998Z,64.00
2023-05-25T04:57:13.759Z,62.35
2023-05-25T04:59:41.048Z,61.52
2023-05-25T05:02:08.765Z,61.12
2023-05-25T05:04:37.372Z,60.51
2023-05-25T05:07:04.318Z,60.00
2023-05-25T05:09:31.095Z,59.52
2023-05-25T05:11:58.030Z,58.90
2023-05-25T05:14:24.877Z,58.04
2023-05-25T05:16:51.968Z,58.39
2023-05-25T05:19:18.878Z,57.42
2023-05-25T05:21:45.823Z,56.21
2023-05-25T05:24:12.635Z,56.10
2023-05-25T05:26:55.270Z,55.24
2023-05-25T05:29:24.095Z,54.34
2023-05-25T05:31:51.173Z,53.02
2023-05-25T05:34:18.144Z,52.13
2023-05-25T05:36:56.631Z,52.26
2023-05-25T05:39:25.230Z,52.41
2023-05-25T05:41:52.126Z,50.58
2023-05-25T05:44:20.582Z,51.27
2023-05-25T05:46:47.370Z,50.44
2023-05-25T05:49:14.163Z,49.87
2023-05-25T05:51:40.868Z,47.97
2023-05-25T05:54:07.579Z,48.26
2023-05-25T05:56:34.335Z,47.57
2023-05-25T05:59:01.194Z,47.02
2023-05-25T06:01:27.938Z,46.61
2023-05-25T06:03:55.928Z,46.42
2023-05-25T06:06:22.725Z,45.44
2023-05-25T06:08:49.444Z,45.78
2023-05-25T06:11:16.202Z,44.22
2023-05-25T06:13:44.214Z,43.54
2023-05-25T06:16:12.628Z,43.45
2023-05-25T06:18:39.686Z,43.53
2023-05-25T06:21:06.519Z,42.29
2023-05-25T06:23:33.247Z,42.48
2023-05-25T06:26:06.527Z,41.63
2023-05-25T06:28:33.355Z,40.79
2023-05-25T06:31:00.146Z,41.36
2023-05-25T06:33:26.948Z,39.95
2023-05-25T06:35:58.259Z,39.40
2023-05-25T06:38:25.128Z,37.40
2023-05-25T06:40:51.827Z,39.58
2023-05-25T06:43:18.662Z,39.40
2023-05-25T06:45:45.675Z,40.29
2023-05-25T06:48:12.847Z,42.31
2023-05-25T06:50:40.163Z,42.47
2023-05-25T06:53:06.901Z,41.29
2023-05-25T06:55:33.670Z,43.43
2023-05-25T06:58:00.476Z,42.07
2023-05-25T07:00:27.247Z,41.25
2023-05-25T07:02:54.069Z,39.50
2023-05-25T07:05:20.925Z,41.04
2023-05-25T07:07:47.765Z,41.51
2023-05-25T07:10:14.591Z,41.70
2023-05-25T07:12:41.355Z,41.53
2023-05-25T07:15:09.048Z,40.37
2023-05-25T07:17:36.678Z,40.76
2023-05-25T07:20:05.306Z,40.44
2023-05-25T07:22:32.181Z,40.93
2023-05-25T07:24:59.076Z,41.09
2023-05-25T07:27:25.832Z,41.37
2023-05-25T07:29:52.546Z,40.05
2023-05-25T07:32:19.348Z,39.75
2023-05-25T07:34:46.056Z,39.06
2023-05-25T07:37:12.787Z,39.31
2023-05-25T07:39:40.940Z,40.18
2023-05-25T07:42:07.921Z,39.02
2023-05-25T07:44:34.792Z,37.43
2023-05-25T07:47:01.646Z,39.00
2023-05-25T07:49:28.454Z,37.16
2023-05-25T07:51:55.156Z,37.46
2023-05-25T07:54:21.865Z,36.24
2023-05-25T07:56:48.801Z,36.89
2023-05-25T07:59:15.539Z,36.56
2023-05-25T08:01:42.279Z,36.75
2023-05-25T08:04:09.646Z,35.62
2023-05-25T08:06:36.552Z,34.89
2023-05-25T08:09:04.913Z,34.29
2023-05-25T08:11:31.667Z,35.27
2023-05-25T08:14:00.399Z,34.85
2023-05-25T08:16:27.299Z,33.42
2023-05-25T08:18:54.078Z,32.15
2023-05-25T08:21:20.997Z,34.70
2023-05-25T08:23:47.978Z,35.98
2023-05-25T08:26:34.144Z,35.15
2023-05-25T08:29:02.489Z,36.08
2023-05-25T08:31:29.374Z,38.48
2023-05-25T08:33:56.137Z,37.84
2023-05-25T08:36:22.925Z,37.92
2023-05-25T08:38:49.651Z,38.65
2023-05-25T08:41:16.780Z,39.62
2023-05-25T08:43:43.532Z,37.88
2023-05-25T08:46:10.440Z,36.67
2023-05-25T08:48:41.608Z,37.08
2023-05-25T08:51:11.224Z,35.48
2023-05-25T08:53:39.805Z,34.20
2023-05-25T08:56:27.054Z,34.21
2023-05-25T08:59:06.378Z,35.41
2023-05-25T09:01:33.943Z,34.56
2023-05-25T09:04:01.114Z,33.12
2023-05-25T09:06:28.458Z,32.17
2023-05-25T09:08:55.268Z,31.89
2023-05-25T09:11:36.073Z,31.03
2023-05-25T09:14:04.810Z,31.13
2023-05-25T09:16:33.182Z,30.53
2023-05-25T09:19:00.115Z,29.78
2023-05-25T09:21:27.343Z,30.22
2023-05-25T09:23:54.291Z,29.51
2023-05-25T09:26:21.334Z,31.01
2023-05-25T09:28:48.599Z,29.72
2023-05-25T09:31:15.754Z,31.57
2023-05-25T09:33:43.474Z,30.87
2023-05-25T09:36:10.946Z,30.25
2023-05-25T09:38:37.950Z,29.83
2023-05-25T09:41:06.175Z,29.53
2023-05-25T09:46:06.196Z,30.35
2023-05-25T09:48:33.016Z,32.04
2023-05-25T09:50:59.780Z,32.29
2023-05-25T09:53:26.736Z,31.86
2023-05-25T09:55:54.481Z,32.42
2023-05-25T09:58:23.796Z,33.00
2023-05-25T10:00:55.611Z,34.50
2023-05-25T10:03:22.743Z,34.64
2023-05-25T10:05:49.526Z,34.92
2023-05-25T10:08:17.892Z,32.86
2023-05-25T10:10:44.890Z,31.87
2023-05-25T10:13:11.843Z,31.07
2023-05-25T10:15:38.837Z,29.46
2023-05-25T10:18:05.949Z,31.29
2023-05-25T10:20:34.896Z,31.90
2023-05-25T10:23:08.643Z,32.06
2023-05-25T10:25:50.901Z,32.31
2023-05-25T10:28:22.214Z,30.11
2023-05-25T10:30:50.076Z,31.59
2023-05-25T10:33:16.864Z,28.92
2023-05-25T10:36:01.704Z,27.67
2023-05-25T10:38:31.579Z,29.81
2023-05-25T10:41:02.314Z,29.80
2023-05-25T10:43:29.059Z,29.96
2023-05-25T10:45:56.909Z,28.41
2023-05-25T10:48:25.152Z,28.49
2023-05-25T10:50:51.985Z,31.14
2023-05-25T10:53:21.161Z,32.41
2023-05-25T10:55:53.654Z,30.71
2023-05-25T10:58:23.547Z,29.14
2023-05-25T11:01:04.216Z,29.96
2023-05-25T11:03:50.855Z,28.80
2023-05-25T11:06:18.722Z,28.20
2023-05-25T11:08:52.073Z,29.23
2023-05-25T11:11:18.860Z,32.29
2023-05-25T11:13:46.839Z,31.32
2023-05-25T11:16:17.980Z,29.58
2023-05-25T11:18:52.612Z,33.98
2023-05-25T11:21:24.534Z,33.85
2023-05-25T11:24:17.123Z,32.17
2023-05-25T11:26:57.625Z,32.55
2023-05-25T11:29:25.919Z,35.16
2023-05-25T11:31:56.102Z,33.54
2023-05-25T11:34:24.490Z,33.43
2023-05-25T11:36:54.178Z,35.62
2023-05-25T11:39:23.024Z,37.19
2023-05-25T11:41:52.712Z,37.85
2023-05-25T11:44:28.131Z,32.91
2023-05-25T11:46:58.609Z,32.00
2023-05-25T11:49:25.934Z,26.12
2023-05-25T11:51:53.842Z,31.19
2023-05-25T11:54:25.063Z,34.54
2023-05-25T11:56:51.970Z,34.66
2023-05-25T11:59:18.747Z,35.88
2023-05-25T12:01:58.661Z,36.32
2023-05-25T12:04:25.592Z,31.09
2023-05-25T12:06:52.402Z,30.74
2023-05-25T12:09:22.311Z,30.94
2023-05-25T12:11:49.178Z,36.85
2023-05-25T12:14:16.112Z,39.85
2023-05-25T12:16:42.959Z,40.27
2023-05-25T12:19:11.417Z,42.21
2023-05-25T12:21:39.154Z,40.77
2023-05-25T12:24:06.488Z,43.16
2023-05-25T12:26:33.283Z,45.16
2023-05-25T12:29:07.442Z,48.50
2023-05-25T12:31:38.540Z,49.73
2023-05-25T12:34:14.861Z,50.23
2023-05-25T12:36:44.423Z,50.57
2023-05-25T12:39:12.274Z,49.14
2023-05-25T12:41:48.257Z,49.96
2023-05-25T12:44:31.504Z,52.29
2023-05-25T12:47:16.018Z,49.32
2023-05-25T12:49:44.055Z,51.35
2023-05-25T12:52:11.209Z,54.20
2023-05-25T12:54:46.168Z,51.91
2023-05-25T12:57:14.591Z,52.71
2023-05-25T12:59:42.852Z,51.99
2023-05-25T13:02:10.026Z,54.07
2023-05-25T13:04:40.813Z,55.52
2023-05-25T13:07:10.724Z,55.00
2023-05-25T13:09:37.860Z,54.20
2023-05-25T13:12:05.029Z,53.17
2023-05-25T13:14:31.921Z,54.65
2023-05-25T13:16:58.817Z,51.10
2023-05-25T13:19:26.048Z,51.55
2023-05-25T13:21:53.152Z,50.99
2023-05-25T13:24:20.045Z,46.81
2023-05-25T13:26:49.879Z,44.88
2023-05-25T13:29:17.755Z,41.18
2023-05-25T13:31:44.724Z,40.18
2023-05-25T13:34:11.753Z,40.84
2023-05-25T13:36:38.685Z,40.75
2023-05-25T13:39:05.547Z,42.77
2023-05-25T13:41:32.346Z,43.73
2023-05-25T13:43:59.229Z,44.43
2023-05-25T13:46:34.130Z,44.97
2023-05-25T13:49:02.496Z,44.66
2023-05-25T13:51:29.384Z,40.76
2023-05-25T13:53:56.154Z,40.04
2023-05-25T13:56:23.339Z,35.19
2023-05-25T13:58:50.314Z,34.61
2023-05-25T14:01:17.159Z,33.65
2023-05-25T14:03:44.213Z,35.46
2023-05-25T14:06:11.141Z,38.69
2023-05-25T14:08:38.107Z,38.88
2023-05-25T14:11:09.014Z,35.43
2023-05-25T14:13:36.649Z,36.63
2023-05-25T14:16:03.914Z,35.10
2023-05-25T14:18:30.955Z,35.57
2023-05-25T14:20:57.735Z,38.05
2023-05-25T14:23:24.476Z,37.42
2023-05-25T14:25:51.265Z,37.73
2023-05-25T14:28:17.960Z,37.01
2023-05-25T14:30:44.705Z,36.74
2023-05-25T14:33:14.260Z,37.90
2023-05-25T14:35:43.133Z,37.69
2023-05-25T14:38:10.319Z,37.27
2023-05-25T14:40:37.196Z,35.56
2023-05-25T14:43:04.038Z,36.95
2023-05-25T14:45:30.784Z,38.27
2023-05-25T14:48:11.883Z,38.09
2023-05-25T14:50:44.106Z,37.78
2023-05-25T14:53:10.916Z,38.67
2023-05-25T14:55:37.659Z,38.25
2023-05-25T14:58:04.376Z,39.30
2023-05-25T15:00:31.127Z,40.27
2023-05-25T15:02:58.295Z,38.61
2023-05-25T15:05:26.082Z,40.05
2023-05-25T15:07:52.872Z,40.30
2023-05-25T15:10:19.592Z,39.58
2023-05-25T15:12:46.287Z,39.20
2023-05-25T15:15:13.212Z,38.58
2023-05-25T15:17:40.134Z,40.44
2023-05-25T15:20:07.378Z,41.67
2023-05-25T15:22:34.105Z,42.69
2023-05-25T15:25:02.588Z,43.41
2023-05-25T15:27:29.673Z,45.71
2023-05-25T15:29:56.519Z,49.85
2023-05-25T15:32:23.238Z,50.12
2023-05-25T15:34:49.956Z,49.19
2023-05-25T15:37:16.685Z,48.18
2023-05-25T15:39:43.801Z,48.67
2023-05-25T15:42:10.702Z,48.61
2023-05-25T15:44:37.467Z,49.40
2023-05-25T15:47:04.379Z,50.58
2023-05-25T15:49:32.190Z,50.27
2023-05-25T15:51:58.898Z,50.54
2023-05-25T15:54:25.617Z,49.89
2023-05-25T15:56:53.548Z,50.44
2023-05-25T15:59:20.534Z,48.69
2023-05-25T16:01:47.434Z,49.13
2023-05-25T16:04:14.392Z,47.86
2023-05-25T16:06:41.175Z,48.02
2023-05-25T16:09:08.214Z,47.75
2023-05-25T16:11:35.593Z,48.25
2023-05-25T16:14:02.301Z,47.32
2023-05-25T16:16:29.708Z,47.90
2023-05-25T16:18:56.573Z,48.66
2023-05-25T16:21:23.299Z,48.50
2023-05-25T16:23:50.341Z,48.25
2023-05-25T16:26:17.109Z,48.83
2023-05-25T16:28:43.940Z,49.50
2023-05-25T16:31:12.243Z,49.33
2023-05-25T16:33:41.066Z,50.25
2023-05-25T16:36:08.248Z,51.05
2023-05-25T16:38:34.958Z,50.06
2023-05-25T16:41:01.680Z,50.30
2023-05-25T16:43:28.395Z,50.07
2023-05-25T16:45:55.137Z,51.78
2023-05-25T16:48:23.239Z,49.87
2023-05-25T16:50:50.171Z,50.20
2023-05-25T16:53:16.856Z,50.21
2023-05-25T16:55:43.926Z,52.38
2023-05-25T16:58:10.840Z,51.83
2023-05-25T17:00:37.550Z,53.22
2023-05-25T17:03:04.425Z,53.45
2023-05-25T17:05:31.184Z,53.28
2023-05-25T17:07:57.999Z,53.18
2023-05-25T17:10:24.731Z,53.31
2023-05-25T17:12:51.512Z,52.93
2023-05-25T17:15:18.314Z,52.91
2023-05-25T17:17:45.090Z,53.36
2023-05-25T17:20:11.996Z,53.52
2023-05-25T17:22:38.734Z,54.52
2023-05-25T17:25:11.784Z,52.24
2023-05-25T17:27:38.461Z,53.96
2023-05-25T17:30:05.709Z,53.65
2023-05-25T17:32:32.806Z,52.79
2023-05-25T17:34:59.549Z,53.46
2023-05-25T17:37:26.287Z,52.57
2023-05-25T17:39:53.051Z,51.90
2023-05-25T17:42:19.835Z,51.66
2023-05-25T17:44:46.537Z,52.35
2023-05-25T17:47:13.305Z,50.68
2023-05-25T17:49:40.036Z,51.76
2023-05-25T17:52:07.610Z,51.18
2023-05-25T17:54:37.012Z,51.44
2023-05-25T17:57:03.945Z,52.62
2023-05-25T17:59:30.756Z,53.47
2023-05-25T18:01:57.640Z,54.71
2023-05-25T18:04:24.430Z,54.11
2023-05-25T18:06:54.080Z,53.42
2023-05-25T18:09:21.053Z,56.21
2023-05-25T18:11:47.788Z,55.06
2023-05-25T18:14:14.570Z,55.12
2023-05-25T18:16:42.477Z,56.20
2023-05-25T18:19:09.587Z,54.90
2023-05-25T18:21:40.533Z,54.94
2023-05-25T18:24:08.441Z,54.13
2023-05-25T18:26:36.152Z,53.38
2023-05-25T18:29:03.053Z,53.16
2023-05-25T18:31:33.515Z,51.85
2023-05-25T18:34:00.544Z,51.39
2023-05-25T18:36:27.271Z,52.43
2023-05-25T18:38:54.066Z,52.18
2023-05-25T18:41:21.554Z,53.63
2023-05-25T18:43:49.180Z,53.03
2023-05-25T18:46:16.676Z,54.27
2023-05-25T18:48:43.486Z,53.40
2023-05-25T18:51:10.515Z,52.91
2023-05-25T18:53:37.249Z,51.73
2023-05-25T18:56:04.019Z,51.10
2023-05-25T18:58:31.169Z,57.18
2023-05-25T19:00:57.934Z,57.50
2023-05-25T19:03:24.838Z,58.74
2023-05-25T19:05:51.738Z,60.78
2023-05-25T19:08:18.440Z,60.51
2023-05-25T19:10:45.262Z,63.30
2023-05-25T19:13:12.127Z,63.21
2023-05-25T19:15:38.875Z,63.90
2023-05-25T19:18:05.862Z,63.78
2023-05-25T19:20:32.903Z,65.94
2023-05-25T19:23:00.002Z,66.88
2023-05-25T19:25:26.768Z,66.76
2023-05-25T19:27:53.702Z,69.63
2023-05-25T19:30:20.650Z,70.29
2023-05-25T19:32:47.436Z,69.48
2023-05-25T19:35:14.224Z,72.48
2023-05-25T19:37:41.331Z,72.36
2023-05-25T19:40:09.620Z,74.52
2023-05-25T19:42:36.700Z,75.08
2023-05-25T19:45:03.894Z,74.63
2023-05-25T19:47:31.552Z,76.02
2023-05-25T19:49:58.480Z,74.00
2023-05-25T19:52:25.268Z,75.88
2023-05-25T19:54:52.055Z,77.73
2023-05-25T19:57:19.900Z,79.14
2023-05-25T19:59:47.030Z,79.55
2023-05-25T20:02:13.820Z,80.19
2023-05-25T20:04:41.487Z,82.23
2023-05-25T20:07:08.314Z,85.28
2023-05-25T20:09:35.798Z,84.36
2023-05-25T20:12:03.259Z,83.23
2023-05-25T20:14:33.769Z,84.22
2023-05-25T20:17:00.632Z,84.77
2023-05-25T20:19:27.449Z,86.44
2023-05-25T20:21:54.365Z,87.16
2023-05-25T20:24:22.154Z,88.77
2023-05-25T20:26:49.165Z,87.89
2023-05-25T20:29:15.977Z,84.90
2023-05-25T20:31:42.771Z,87.12
2023-05-25T20:34:09.607Z,87.45
2023-05-25T20:36:36.672Z,87.84
2023-05-25T20:39:03.650Z,88.46
2023-05-25T20:41:30.453Z,89.59
2023-05-25T20:43:57.371Z,88.33
2023-05-25T20:46:24.201Z,88.28
2023-05-25T20:48:52.019Z,88.71
2023-05-25T20:51:18.833Z,91.07
2023-05-25T20:53:45.687Z,90.06
2023-05-25T20:56:12.573Z,89.04
2023-05-25T20:58:39.785Z,90.71
2023-05-25T21:01:06.600Z,90.26
2023-05-25T21:03:33.563Z,91.39
2023-05-25T21:06:00.628Z,90.93
2023-05-25T21:08:27.393Z,91.25
2023-05-25T21:10:54.762Z,92.71
2023-05-25T21:13:21.545Z,93.10
2023-05-25T21:15:48.455Z,93.35
2023-05-25T21:18:15.555Z,94.05
2023-05-25T21:20:42.496Z,94.34
2023-05-25T21:23:09.369Z,94.91
2023-05-25T21:25:36.478Z,94.10
2023-05-25T21:28:03.236Z,94.44
2023-05-25T21:30:29.995Z,95.69
2023-05-25T21:32:56.796Z,95.77
2023-05-25T21:35:23.737Z,96.30
2023-05-25T21:37:50.599Z,95.43
2023-05-25T21:40:17.445Z,96.42
2023-05-25T21:42:44.272Z,96.82
2023-05-25T21:45:11.150Z,98.22
2023-05-25T21:47:37.985Z,97.51
2023-05-25T21:50:05.524Z,98.87
2023-05-25T21:52:32.337Z,97.24
2023-05-25T21:54:59.128Z,95.56
2023-05-25T21:57:25.987Z,96.39
2023-05-25T21:59:52.766Z,95.50
2023-05-25T22:02:20.269Z,96.35
2023-05-25T22:04:47.247Z,96.46
2023-05-25T22:07:14.077Z,96.03
2023-05-25T22:09:40.898Z,96.66
2023-05-25T22:12:07.717Z,96.06
2023-05-25T22:14:34.559Z,96.08
2023-05-25T22:17:01.359Z,95.26
2023-05-25T22:19:28.189Z,94.46
2023-05-25T22:21:54.932Z,95.94
2023-05-25T22:24:21.715Z,95.34
2023-05-25T22:26:48.593Z,95.06
2023-05-25T22:29:15.624Z,94.44
2023-05-25T22:31:42.455Z,93.97
2023-05-25T22:34:09.288Z,94.79
2023-05-25T22:36:37.234Z,94.76
2023-05-25T22:39:04.086Z,94.61
2023-05-25T22:41:31.234Z,94.33
2023-05-25T22:43:57.996Z,94.79
2023-05-25T22:46:24.847Z,94.66
2023-05-25T22:48:51.785Z,93.85
2023-05-25T22:51:18.563Z,94.13
2023-05-25T22:53:45.641Z,93.86
2023-05-25T22:56:12.382Z,94.78
2023-05-25T22:58:39.196Z,92.94
2023-05-25T23:01:06.076Z,93.65
2023-05-25T23:03:32.930Z,94.44
2023-05-25T23:05:59.840Z,93.36
2023-05-25T23:08:26.827Z,94.26
2023-05-25T23:10:53.624Z,94.04
2023-05-25T23:13:24.037Z,94.15
2023-05-25T23:15:50.924Z,93.84
2023-05-25T23:18:17.884Z,94.03
2023-05-25T23:20:45.024Z,93.97
2023-05-25T23:23:12.195Z,93.21
2023-05-25T23:25:39.058Z,93.94
2023-05-25T23:28:05.824Z,93.96
2023-05-25T23:30:32.633Z,95.10
2023-05-25T23:33:00.172Z,94.88
2023-05-25T23:35:27.440Z,94.85
2023-05-25T23:37:54.822Z,93.70
2023-05-25T23:40:21.602Z,93.60
2023-05-25T23:42:48.396Z,93.80
2023-05-25T23:45:15.164Z,94.25
2023-05-25T23:47:42.046Z,94.37
2023-05-25T23:50:09.381Z,93.30
2023-05-25T23:52:36.196Z,94.03
2023-05-25T23:55:02.954Z,93.50
2023-05-25T23:57:29.777Z,94.36
2023-05-25T23:59:56.589Z,93.39
